Time;durP1;ratioP1;P1;durP2;ratioP2;P2;SDS_P1;SDS_P2;PMS_P1;PMS_P2;Temp;Humidity;BMP_temperature;BMP_pressure;BME280_temperature;BME280_humidity;BME280_pressure;Samples;Min_cycle;Max_cycle;Signal;HPM_P1;HPM_P2
2023/01/12 05:31:59;;;;;;;;;3.00;2.00;;;;;-147.14;100.00;58812.66;6227119;22;45669;-65
2023/01/12 05:34:24;;;;;;;;;7.00;2.00;;;;;-147.14;100.00;58812.66;6247164;22;45083;-65
2023/01/12 05:36:50;;;;;;;;;2.67;1.67;;;;;-147.14;100.00;58812.66;6246761;22;45229;-64
2023/01/12 05:39:15;;;;;;;;;4.00;1.00;;;;;-147.14;100.00;58812.66;6245796;22;61542;-65
2023/01/12 05:43:48;;;;;;;;;1.67;1.67;;;;;-147.14;100.00;58812.66;6246823;22;45324;-64
2023/01/12 05:44:26;;;;;;;;;5.00;2.00;;;;;-147.14;100.00;58812.66;6245298;22;45204;-64
2023/01/12 05:46:51;;;;;;;;;6.00;1.00;;;;;-147.14;100.00;58812.66;6245032;22;45931;-64
2023/01/12 05:49:17;;;;;;;;;2.33;1.00;;;;;-147.14;100.00;58812.66;6244874;22;65549;-65
2023/01/12 05:51:42;;;;;;;;;2.33;0.00;;;;;-147.14;100.00;58812.66;6245571;22;57367;-64
2023/01/12 05:54:07;;;;;;;;;3.67;2.00;;;;;-147.14;100.00;58812.66;6245153;22;62195;-65
2023/01/12 05:56:33;;;;;;;;;3.67;1.00;;;;;-147.14;100.00;58812.66;6246971;22;47993;-67
2023/01/12 05:58:59;;;;;;;;;3.00;1.00;;;;;-147.14;100.00;58812.66;6245761;22;45268;-65
2023/01/12 06:01:26;;;;;;;;;1.00;1.00;;;;;-147.14;100.00;58812.66;6247245;22;45237;-65
2023/01/12 06:03:53;;;;;;;;;4.00;2.00;;;;;-147.14;100.00;58812.66;6246349;22;45387;-66
2023/01/12 06:06:20;;;;;;;;;5.33;2.00;;;;;-147.14;100.00;58812.66;6244996;22;46487;-66
2023/01/12 06:08:46;;;;;;;;;1.67;1.67;;;;;-147.14;100.00;58812.66;6244795;22;45337;-66
2023/01/12 06:13:55;;;;;;;;;1.67;1.00;;;;;-147.14;100.00;58812.66;6245189;22;45277;-66
2023/01/12 06:13:58;;;;;;;;;3.33;1.33;;;;;-147.14;100.00;58812.66;6245540;22;45154;-66
2023/01/12 06:16:24;;;;;;;;;3.00;1.00;;;;;-147.14;100.00;58812.66;6244107;22;47032;-65
2023/01/12 06:18:49;;;;;;;;;0.00;0.00;;;;;-147.14;100.00;58812.66;6246021;22;45246;-65
2023/01/12 06:21:14;;;;;;;;;2.00;2.00;;;;;-147.14;100.00;58812.66;6245555;22;53585;-65
2023/01/12 06:23:40;;;;;;;;;0.67;0.67;;;;;-147.14;100.00;58812.66;6246551;22;61546;-65
2023/01/12 06:26:07;;;;;;;;;2.67;0.67;;;;;-147.14;100.00;58812.66;6245319;22;66582;-65
2023/01/12 06:28:33;;;;;;;;;2.00;1.00;;;;;-147.14;100.00;58812.66;6245932;22;45379;-65
2023/01/12 06:31:01;;;;;;;;;3.00;1.00;;;;;-147.14;100.00;58812.66;6217800;22;45605;-65
2023/01/12 06:33:27;;;;;;;;;4.00;2.00;;;;;-147.14;100.00;58812.66;6245446;22;45609;-65
2023/01/12 06:35:53;;;;;;;;;1.00;0.67;;;;;-147.14;100.00;58812.66;6217995;22;45357;-65
2023/01/12 06:38:19;;;;;;;;;1.67;0.00;;;;;-147.14;100.00;58812.66;6219557;22;45342;-65
2023/01/12 06:40:44;;;;;;;;;1.00;1.00;;;;;-147.14;100.00;58812.66;6246152;22;45335;-66
2023/01/12 06:43:10;;;;;;;;;2.33;2.00;;;;;-147.14;100.00;58812.66;6244717;22;49055;-65
2023/01/12 06:45:35;;;;;;;;;3.33;0.67;;;;;-147.14;100.00;58812.66;6246163;22;45445;-65
2023/01/12 06:48:00;;;;;;;;;1.00;1.00;;;;;-147.14;100.00;58812.66;6244136;22;45269;-66
2023/01/12 06:50:26;;;;;;;;;2.00;1.00;;;;;-147.14;100.00;58812.66;6246883;22;45345;-66
2023/01/12 06:52:51;;;;;;;;;5.33;1.33;;;;;-147.14;100.00;58812.66;6246530;22;48061;-66
2023/01/12 06:55:17;;;;;;;;;2.00;0.67;;;;;-147.14;100.00;58812.66;6246503;22;45759;-66
2023/01/12 06:57:42;;;;;;;;;1.00;1.00;;;;;-147.14;100.00;58812.66;6246704;22;45300;-66
2023/01/12 07:00:11;;;;;;;;;1.00;1.00;;;;;-147.14;100.00;58812.66;6246005;22;45203;-66
2023/01/12 07:02:36;;;;;;;;;2.00;0.00;;;;;-147.14;100.00;58812.66;6246419;22;45309;-66
2023/01/12 07:05:02;;;;;;;;;2.67;0.00;;;;;-147.14;100.00;58812.66;6245164;22;64329;-66
2023/01/12 07:07:27;;;;;;;;;2.00;1.67;;;;;-147.14;100.00;58812.66;6219815;22;45611;-66
2023/01/12 07:09:52;;;;;;;;;4.00;1.00;;;;;-147.14;100.00;58812.66;6245032;22;60282;-66
2023/01/12 07:12:18;;;;;;;;;2.00;1.00;;;;;-147.14;100.00;58812.66;6245681;22;49477;-65
2023/01/12 07:14:43;;;;;;;;;2.67;1.00;;;;;-147.14;100.00;58812.66;6244978;22;68025;-65
2023/01/12 07:17:08;;;;;;;;;0.33;0.33;;;;;-147.14;100.00;58812.66;6246020;22;45260;-65
2023/01/12 07:19:34;;;;;;;;;0.00;0.00;;;;;-147.14;100.00;58812.66;6245333;22;49420;-65
2023/01/12 07:21:59;;;;;;;;;1.00;1.00;;;;;-147.14;100.00;58812.66;6246128;22;45317;-66
2023/01/12 07:24:24;;;;;;;;;1.00;0.00;;;;;-147.14;100.00;58812.66;6243669;22;61811;-67
2023/01/12 07:26:51;;;;;;;;;2.33;1.00;;;;;-147.14;100.00;58812.66;6244777;22;61927;-64
2023/01/12 07:29:16;;;;;;;;;2.00;0.00;;;;;-147.14;100.00;58812.66;6245257;22;45289;-65
2023/01/12 07:31:43;;;;;;;;;2.00;1.00;;;;;-147.14;100.00;58812.66;6245207;22;56395;-66
2023/01/12 07:34:08;;;;;;;;;0.00;0.00;;;;;-147.14;100.00;58812.66;6245299;22;47065;-65
2023/01/12 07:36:34;;;;;;;;;1.00;0.00;;;;;-147.14;100.00;58812.66;6246426;22;45149;-65
2023/01/12 07:38:59;;;;;;;;;3.00;1.00;;;;;-147.14;100.00;58812.66;6244798;22;59143;-66
2023/01/12 07:44:08;;;;;;;;;3.00;0.67;;;;;-147.14;100.00;58812.66;6245245;22;45285;-66
2023/01/12 07:46:34;;;;;;;;;1.67;0.67;;;;;-147.14;100.00;58812.66;6245801;22;45426;-66
2023/01/12 07:48:59;;;;;;;;;2.33;1.00;;;;;-147.14;100.00;58812.66;6244816;22;57963;-66
2023/01/12 07:51:25;;;;;;;;;1.00;1.00;;;;;-147.14;100.00;58812.66;6244484;22;45443;-64
2023/01/12 07:53:50;;;;;;;;;3.00;0.67;;;;;-147.14;100.00;58812.66;6242299;22;48008;-65
2023/01/12 07:56:16;;;;;;;;;3.00;1.00;;;;;-147.14;100.00;58812.66;6243614;22;57040;-64
2023/01/12 07:58:42;;;;;;;;;4.00;1.00;;;;;-147.14;100.00;58812.66;6218344;22;45605;-64
2023/01/12 08:01:07;;;;;;;;;4.33;1.00;;;;;-147.14;100.00;58812.66;6245418;22;45312;-64
2023/01/12 08:03:33;;;;;;;;;6.00;1.00;;;;;-147.14;100.00;58812.66;6245470;22;50661;-64
2023/01/12 08:05:59;;;;;;;;;1.00;1.00;;;;;-147.14;100.00;58812.66;6243332;22;48295;-64
2023/01/12 08:08:24;;;;;;;;;0.67;0.67;;;;;-147.14;100.00;58812.66;6245831;22;45384;-65
2023/01/12 08:10:49;;;;;;;;;0.33;0.33;;;;;-147.14;100.00;58812.66;6244994;22;56238;-65
2023/01/12 08:13:17;;;;;;;;;3.33;1.67;;;;;-147.14;100.00;58812.66;6242997;22;46034;-64
2023/01/12 08:15:45;;;;;;;;;2.67;1.00;;;;;-147.14;100.00;58812.66;6244627;22;45323;-64
2023/01/12 08:18:24;;;;;;;;;2.00;0.00;;;;;-147.14;100.00;58812.66;6217877;22;45265;-65
2023/01/12 08:20:50;;;;;;;;;0.00;0.00;;;;;-147.14;100.00;58812.66;6245835;22;45309;-65
2023/01/12 08:23:19;;;;;;;;;1.00;1.00;;;;;-147.14;100.00;58812.66;6217612;22;46316;-66
2023/01/12 08:25:53;;;;;;;;;0.00;0.00;;;;;-147.14;100.00;58812.66;6217459;22;45312;-65
2023/01/12 08:28:22;;;;;;;;;2.00;0.00;;;;;-147.14;100.00;58812.66;6244653;22;45312;-65
2023/01/12 08:30:47;;;;;;;;;3.00;1.00;;;;;-147.14;100.00;58812.66;6217882;22;45491;-65
2023/01/12 08:33:14;;;;;;;;;1.67;0.67;;;;;-147.14;100.00;58812.66;6243406;22;63888;-65
2023/01/12 08:35:39;;;;;;;;;3.00;1.00;;;;;-147.14;100.00;58812.66;6244680;22;47833;-65
2023/01/12 08:38:04;;;;;;;;;1.00;1.00;;;;;-147.14;100.00;58812.66;6244423;22;54769;-65
2023/01/12 08:44:00;;;;;;;;;2.00;1.00;;;;;-147.14;100.00;58812.66;6245799;22;45662;-63
2023/01/12 08:46:06;;;;;;;;;1.00;1.00;;;;;-147.14;100.00;58812.66;6245111;22;45246;-64
2023/01/12 08:48:35;;;;;;;;;0.67;0.00;;;;;-147.14;100.00;58812.66;6246348;22;45517;-64
2023/01/12 08:51:00;;;;;;;;;1.33;0.00;;;;;-147.14;100.00;58812.66;6245770;22;45296;-64
2023/01/12 08:53:26;;;;;;;;;3.33;1.00;;;;;-147.14;100.00;58812.66;6246715;22;45221;-64
2023/01/12 08:55:52;;;;;;;;;2.33;0.33;;;;;-147.14;100.00;58812.66;6245586;22;63838;-64
2023/01/12 08:58:17;;;;;;;;;2.00;0.33;;;;;-147.14;100.00;58812.66;6219327;22;45349;-64
2023/01/12 09:00:43;;;;;;;;;0.67;0.67;;;;;-147.14;100.00;58812.66;6246451;22;45483;-64
2023/01/12 09:03:08;;;;;;;;;0.00;0.00;;;;;-147.14;100.00;58812.66;6246311;22;45208;-64
2023/01/12 09:05:33;;;;;;;;;1.00;1.00;;;;;-147.14;100.00;58812.66;6245141;22;62169;-64
2023/01/12 09:07:59;;;;;;;;;2.00;1.00;;;;;-147.14;100.00;58812.66;6244911;22;54184;-64
2023/01/12 09:10:24;;;;;;;;;1.00;1.00;;;;;-147.14;100.00;58812.66;6246189;22;45335;-64
2023/01/12 09:12:49;;;;;;;;;2.67;0.00;;;;;-147.14;100.00;58812.66;6245799;22;63677;-64
2023/01/12 09:15:15;;;;;;;;;1.67;0.00;;;;;-147.14;100.00;58812.66;6244619;22;45162;-64
2023/01/12 09:17:40;;;;;;;;;0.00;0.00;;;;;-147.14;100.00;58812.66;6246003;22;58636;-64
2023/01/12 09:20:05;;;;;;;;;1.00;1.00;;;;;-147.14;100.00;58812.66;6245606;22;45459;-64
2023/01/12 09:22:31;;;;;;;;;1.00;0.00;;;;;-147.14;100.00;58812.66;6246341;22;46148;-64
2023/01/12 09:24:56;;;;;;;;;1.00;1.00;;;;;-147.14;100.00;58812.66;6246022;22;47780;-64
2023/01/12 09:27:21;;;;;;;;;6.33;3.00;;;;;-147.14;100.00;58812.66;6246096;22;45310;-64
2023/01/12 09:29:47;;;;;;;;;4.00;1.00;;;;;-147.14;100.00;58812.66;6245102;22;60084;-63
2023/01/12 09:32:12;;;;;;;;;1.00;1.00;;;;;-147.14;100.00;58812.66;6244878;22;57884;-64
2023/01/12 09:34:37;;;;;;;;;2.00;1.00;;;;;-147.14;100.00;58812.66;6246428;22;45276;-64
2023/01/12 09:37:03;;;;;;;;;2.00;1.00;;;;;-147.14;100.00;58812.66;6244765;22;56040;-64
2023/01/12 09:39:29;;;;;;;;;6.00;1.67;;;;;-147.14;100.00;58812.66;6245476;22;61514;-64
2023/01/12 09:48:02;;;;;;;;;2.33;1.00;;;;;-147.14;100.00;58812.66;6246664;22;45367;-64
2023/01/12 09:50:32;;;;;;;;;2.00;1.00;;;;;-147.14;100.00;58812.66;6243836;22;45130;-64
2023/01/12 09:53:11;;;;;;;;;6.33;2.00;;;;;-147.14;100.00;58812.66;6218438;22;45335;-64
2023/01/12 09:55:56;;;;;;;;;4.00;1.33;;;;;-147.14;100.00;58812.66;6246183;22;45269;-65
2023/01/12 09:58:53;;;;;;;;;2.67;1.00;;;;;-147.14;100.00;58812.66;6219081;22;45643;-64
2023/01/12 10:01:20;;;;;;;;;2.00;2.00;;;;;-147.14;100.00;58812.66;6246763;22;45515;-64
2023/01/12 10:03:45;;;;;;;;;3.67;1.00;;;;;-147.14;100.00;58812.66;6246058;22;46086;-64
2023/01/12 10:06:16;;;;;;;;;2.00;0.67;;;;;-147.14;100.00;58812.66;6245438;22;45241;-64
2023/01/12 10:08:53;;;;;;;;;3.00;1.67;;;;;-147.14;100.00;58812.66;6218737;22;45625;-64
2023/01/12 10:11:27;;;;;;;;;4.33;1.00;;;;;-147.14;100.00;58812.66;6246293;22;45650;-64
2023/01/12 10:13:59;;;;;;;;;5.33;1.00;;;;;-147.14;100.00;58812.66;6245028;22;45261;-64
2023/01/12 10:16:47;;;;;;;;;5.67;2.00;;;;;-147.14;100.00;58812.66;6246161;22;45408;-64
2023/01/12 10:19:42;;;;;;;;;4.00;2.00;;;;;-147.14;100.00;58812.66;6218402;22;45185;-64
2023/01/12 10:22:35;;;;;;;;;6.67;2.33;;;;;-147.14;100.00;58812.66;6214346;22;45222;-64
2023/01/12 10:25:10;;;;;;;;;1.00;1.00;;;;;-147.14;100.00;58812.66;6221384;22;47075;-64
2023/01/12 10:27:41;;;;;;;;;0.67;0.67;;;;;-147.14;100.00;58812.66;6246298;22;45232;-64
2023/01/12 10:30:30;;;;;;;;;3.00;2.00;;;;;-147.14;100.00;58812.66;6245512;22;45872;-64
2023/01/12 10:32:57;;;;;;;;;1.00;1.00;;;;;-147.14;100.00;58812.66;6245609;22;45305;-64
2023/01/12 10:35:24;;;;;;;;;1.33;1.33;;;;;-147.14;100.00;58812.66;6245905;22;46184;-64
2023/01/12 10:37:52;;;;;;;;;3.67;2.00;;;;;-147.14;100.00;58812.66;6245115;22;45354;-64
2023/01/12 10:40:24;;;;;;;;;1.67;1.67;;;;;-147.14;100.00;58812.66;6245779;22;45209;-65
2023/01/12 10:43:19;;;;;;;;;1.67;1.33;;;;;-147.14;100.00;58812.66;6245769;22;45341;-64
2023/01/12 10:46:01;;;;;;;;;1.00;0.00;;;;;-147.14;100.00;58812.66;6244374;22;45396;-64
2023/01/12 10:48:26;;;;;;;;;3.00;1.00;;;;;-147.14;100.00;58812.66;6241558;22;45684;-64
2023/01/12 10:51:03;;;;;;;;;2.00;2.00;;;;;-147.14;100.00;58812.66;6242397;22;57141;-64
2023/01/12 10:53:35;;;;;;;;;1.33;1.00;;;;;-147.14;100.00;58812.66;6243975;22;45474;-64
2023/01/12 10:56:18;;;;;;;;;1.00;1.00;;;;;-147.14;100.00;58812.66;6242860;22;45501;-64
2023/01/12 10:58:54;;;;;;;;;0.67;0.33;;;;;-147.14;100.00;58812.66;6218317;22;45348;-64
2023/01/12 11:01:20;;;;;;;;;1.67;1.33;;;;;-147.14;100.00;58812.66;6218064;22;45516;-63
2023/01/12 11:03:46;;;;;;;;;2.67;1.00;;;;;-147.14;100.00;58812.66;6244796;22;45206;-65
2023/01/12 11:06:27;;;;;;;;;3.00;1.67;;;;;-147.14;100.00;58812.66;6241287;22;64459;-65
2023/01/12 11:08:53;;;;;;;;;2.00;2.00;;;;;-147.14;100.00;58812.66;6243611;22;45751;-63
2023/01/12 11:11:22;;;;;;;;;3.00;1.67;;;;;-147.14;100.00;58812.66;6245297;22;45309;-63
2023/01/12 11:13:51;;;;;;;;;2.00;1.00;;;;;-147.14;100.00;58812.66;6243124;22;45298;-63
2023/01/12 11:16:21;;;;;;;;;0.33;0.33;;;;;-147.14;100.00;58812.66;6244967;22;46083;-63
2023/01/12 11:19:10;;;;;;;;;4.33;1.00;;;;;-147.14;100.00;58812.66;6244720;22;45185;-63
2023/01/12 11:21:37;;;;;;;;;2.00;2.00;;;;;-147.14;100.00;58812.66;6244518;22;45236;-63
2023/01/12 11:24:05;;;;;;;;;2.00;1.00;;;;;-147.14;100.00;58812.66;6245285;22;45435;-64
2023/01/12 11:26:45;;;;;;;;;1.00;1.00;;;;;-147.14;100.00;58812.66;6244580;22;45268;-63
2023/01/12 11:29:27;;;;;;;;;3.67;1.67;;;;;-147.14;100.00;58812.66;6244634;22;45397;-63
2023/01/12 11:31:59;;;;;;;;;3.00;0.00;;;;;-147.14;100.00;58812.66;6244622;22;45289;-63
2023/01/12 11:34:29;;;;;;;;;2.00;2.00;;;;;-147.14;100.00;58812.66;6217530;22;45269;-63
2023/01/12 11:37:03;;;;;;;;;3.67;2.00;;;;;-147.14;100.00;58812.66;6244480;22;46053;-64
2023/01/12 11:39:30;;;;;;;;;1.00;1.00;;;;;-147.14;100.00;58812.66;6217644;22;45356;-63
2023/01/12 11:44:54;;;;;;;;;5.67;3.67;;;;;-147.14;100.00;58812.66;6221825;22;45360;-64
2023/01/12 11:47:22;;;;;;;;;1.67;1.67;;;;;-147.14;100.00;58812.66;6216899;22;46554;-65
2023/01/12 11:50:14;;;;;;;;;1.00;1.00;;;;;-147.14;100.00;58812.66;6216060;22;45738;-65
2023/01/12 11:52:40;;;;;;;;;1.67;1.67;;;;;-147.14;100.00;58812.66;6244254;22;45578;-63
2023/01/12 11:55:14;;;;;;;;;2.00;1.00;;;;;-147.14;100.00;58812.66;6243061;22;45290;-61
2023/01/12 11:58:19;;;;;;;;;1.33;1.00;;;;;-147.14;100.00;58812.66;6242874;22;46291;-59
2023/01/12 12:01:09;;;;;;;;;2.00;1.00;;;;;-147.14;100.00;58812.66;6211655;22;45507;-63
2023/01/12 12:03:41;;;;;;;;;2.00;1.00;;;;;-147.14;100.00;58812.66;6216929;22;45720;-60
2023/01/12 12:06:15;;;;;;;;;1.67;1.33;;;;;-147.14;100.00;58812.66;6242509;22;45337;-60
2023/01/12 12:08:59;;;;;;;;;1.33;1.33;;;;;-147.14;100.00;58812.66;6244385;22;45312;-62
2023/01/12 12:11:33;;;;;;;;;2.00;2.00;;;;;-147.14;100.00;58812.66;6244378;22;45411;-61
2023/01/12 12:14:16;;;;;;;;;1.67;1.00;;;;;-147.14;100.00;58812.66;6244151;22;45378;-60
2023/01/12 12:16:44;;;;;;;;;0.33;0.33;;;;;-147.14;100.00;58812.66;6247113;22;45348;-64
2023/01/12 12:19:14;;;;;;;;;1.33;1.00;;;;;-147.14;100.00;58812.66;6216532;22;47451;-60
2023/01/12 12:21:52;;;;;;;;;1.00;1.00;;;;;-147.14;100.00;58812.66;6218218;22;45324;-60
2023/01/12 12:24:46;;;;;;;;;4.33;2.00;;;;;-147.14;100.00;58812.66;6245608;22;45307;-60
2023/01/12 12:27:31;;;;;;;;;3.00;1.00;;;;;-147.14;100.00;58812.66;6206433;22;45703;-61
2023/01/12 12:30:02;;;;;;;;;1.00;0.00;;;;;-147.14;100.00;58812.66;6244702;22;46899;-60
2023/01/12 12:32:42;;;;;;;;;1.00;1.00;;;;;-147.14;100.00;58812.66;6245501;22;45248;-61
2023/01/12 12:35:23;;;;;;;;;2.00;1.00;;;;;-147.14;100.00;58812.66;6219256;22;45395;-59
2023/01/12 12:37:57;;;;;;;;;1.00;1.00;;;;;-147.14;100.00;58812.66;6246094;22;45289;-60
2023/01/12 12:40:22;;;;;;;;;1.00;0.00;;;;;-147.14;100.00;58812.66;6244493;22;45253;-60
2023/01/12 12:46:11;;;;;;;;;1.00;1.00;;;;;-147.14;100.00;58812.66;6221548;22;45317;-60
2023/01/12 12:49:03;;;;;;;;;0.00;0.00;;;;;-147.14;100.00;58812.66;6217725;22;45363;-61
2023/01/12 12:51:31;;;;;;;;;0.67;0.00;;;;;-147.14;100.00;58812.66;6244328;22;46945;-61
2023/01/12 12:53:57;;;;;;;;;0.00;0.00;;;;;-147.14;100.00;58812.66;6214771;22;45341;-61
2023/01/12 12:56:24;;;;;;;;;2.00;1.00;;;;;-147.14;100.00;58812.66;6218341;22;45234;-61
2023/01/12 12:58:53;;;;;;;;;4.00;1.00;;;;;-147.14;100.00;58812.66;6244932;22;45280;-60
2023/01/12 13:01:18;;;;;;;;;1.00;1.00;;;;;-147.14;100.00;58812.66;6245334;22;46171;-61
2023/01/12 13:03:47;;;;;;;;;0.33;0.00;;;;;-147.14;100.00;58812.66;6245903;22;45668;-61
2023/01/12 13:06:33;;;;;;;;;0.00;0.00;;;;;-147.14;100.00;58812.66;6245314;22;45290;-61
2023/01/12 13:09:22;;;;;;;;;2.00;2.00;;;;;-147.14;100.00;58812.66;6219412;22;45277;-61
2023/01/12 13:11:56;;;;;;;;;3.00;2.67;;;;;-147.14;100.00;58812.66;6244760;22;46196;-59
2023/01/12 13:14:35;;;;;;;;;0.00;0.00;;;;;-147.14;100.00;58812.66;6243772;22;45779;-59
2023/01/12 13:17:18;;;;;;;;;1.00;1.00;;;;;-147.14;100.00;58812.66;6243632;22;45674;-59
2023/01/12 13:20:09;;;;;;;;;3.00;2.00;;;;;-147.14;100.00;58812.66;6246512;22;45212;-59
2023/01/12 13:22:41;;;;;;;;;2.67;0.00;;;;;-147.14;100.00;58812.66;6244492;22;45312;-58
2023/01/12 13:25:15;;;;;;;;;1.00;1.00;;;;;-147.14;100.00;58812.66;6245763;22;45596;-59
2023/01/12 13:27:59;;;;;;;;;4.33;2.33;;;;;-147.14;100.00;58812.66;6245986;22;45273;-58
2023/01/12 13:30:30;;;;;;;;;2.33;1.67;;;;;-147.14;100.00;58812.66;6245977;22;45597;-59
2023/01/12 13:32:59;;;;;;;;;1.00;0.00;;;;;-147.14;100.00;58812.66;6245776;22;45408;-58
2023/01/12 13:35:47;;;;;;;;;2.33;0.00;;;;;-147.14;100.00;58812.66;6243565;22;45272;-58
2023/01/12 13:38:27;;;;;;;;;4.00;1.00;;;;;-147.14;100.00;58812.66;6244973;22;45379;-59
2023/01/12 13:43:59;;;;;;;;;0.33;0.33;;;;;-147.14;100.00;58812.66;6159643;22;45344;-59
2023/01/12 13:46:29;;;;;;;;;1.33;1.00;;;;;-147.14;100.00;58812.66;6217615;22;65686;-58
2023/01/12 13:48:55;;;;;;;;;3.00;2.00;;;;;-147.14;100.00;58812.66;6243475;22;45412;-60
2023/01/12 13:51:28;;;;;;;;;4.00;1.00;;;;;-147.14;100.00;58812.66;6245183;22;45284;-58
2023/01/12 13:54:03;;;;;;;;;1.00;1.00;;;;;-147.14;100.00;58812.66;6244205;22;46508;-59
2023/01/12 13:56:29;;;;;;;;;2.00;1.00;;;;;-147.14;100.00;58812.66;6246288;22;45668;-59
2023/01/12 13:58:59;;;;;;;;;1.00;1.00;;;;;-147.14;100.00;58812.66;6246487;22;45316;-59
2023/01/12 14:01:33;;;;;;;;;0.00;0.00;;;;;-147.14;100.00;58812.66;6245664;22;45293;-59
2023/01/12 14:04:14;;;;;;;;;0.67;0.67;;;;;-147.14;100.00;58812.66;6245177;22;46296;-59
2023/01/12 14:06:58;;;;;;;;;2.33;1.00;;;;;-147.14;100.00;58812.66;6245787;22;45614;-58
2023/01/12 14:09:23;;;;;;;;;1.67;0.00;;;;;-147.14;100.00;58812.66;6219977;22;45575;-59
2023/01/12 14:11:54;;;;;;;;;4.00;0.00;;;;;-147.14;100.00;58812.66;6247180;22;45321;-59
2023/01/12 14:17:48;;;;;;;;;0.33;0.00;;;;;-147.14;100.00;58812.66;6245905;22;45269;-59
2023/01/12 14:20:14;;;;;;;;;3.00;1.33;;;;;-147.14;100.00;58812.66;6220838;22;45341;-59
2023/01/12 14:22:39;;;;;;;;;2.00;1.00;;;;;-147.14;100.00;58812.66;6246513;22;45289;-59
2023/01/12 14:25:20;;;;;;;;;1.67;0.67;;;;;-147.14;100.00;58812.66;6244715;22;67658;-59
2023/01/12 14:27:50;;;;;;;;;2.00;1.00;;;;;-147.14;100.00;58812.66;6245974;22;45261;-59
2023/01/12 14:30:16;;;;;;;;;3.00;1.00;;;;;-147.14;100.00;58812.66;6244833;22;45341;-59
2023/01/12 14:32:43;;;;;;;;;2.00;1.00;;;;;-147.14;100.00;58812.66;6245695;22;45234;-59
2023/01/12 14:35:17;;;;;;;;;1.00;1.00;;;;;-147.14;100.00;58812.66;6217645;22;47487;-59
2023/01/12 14:37:56;;;;;;;;;7.00;1.00;;;;;-147.14;100.00;58812.66;6218898;22;45341;-59
2023/01/12 14:40:28;;;;;;;;;1.33;1.00;;;;;-147.14;100.00;58812.66;6246269;22;45291;-60
2023/01/12 14:48:57;;;;;;;;;3.67;1.00;;;;;-147.14;100.00;58812.66;6120981;23;45245;-59
2023/01/12 14:51:26;;;;;;;;;3.00;1.33;;;;;-147.14;100.00;58812.66;6122960;23;45220;-58
2023/01/12 14:54:00;;;;;;;;;5.67;1.67;;;;;-147.14;100.00;58812.66;6182507;22;45346;-58
2023/01/12 14:56:31;;;;;;;;;1.00;1.00;;;;;-147.14;100.00;58812.66;6245024;22;47291;-58
2023/01/12 14:59:06;;;;;;;;;3.67;2.67;;;;;-147.14;100.00;58812.66;6218423;22;45357;-59
2023/01/12 15:01:34;;;;;;;;;2.67;0.67;;;;;-147.14;100.00;58812.66;6218543;22;45247;-59
2023/01/12 15:04:00;;;;;;;;;2.00;1.00;;;;;-147.14;100.00;58812.66;6217609;22;45375;-59
2023/01/12 15:06:26;;;;;;;;;8.00;2.33;;;;;-147.14;100.00;58812.66;6245220;22;45610;-59
2023/01/12 15:09:01;;;;;;;;;3.67;1.00;;;;;-147.14;100.00;58812.66;6245238;22;45280;-59
2023/01/12 15:11:35;;;;;;;;;0.33;0.33;;;;;-147.14;100.00;58812.66;6245824;22;45477;-59
2023/01/12 15:14:02;;;;;;;;;5.00;1.00;;;;;-147.14;100.00;58812.66;6244487;22;45379;-58
2023/01/12 15:27:42;;;;;;;;;3.00;2.00;;;;;-147.14;100.00;58812.66;6245626;22;45268;-59
2023/01/12 15:30:09;;;;;;;;;1.33;0.67;;;;;-147.14;100.00;58812.66;6243652;22;67758;-58
2023/01/12 15:32:40;;;;;;;;;3.00;1.00;;;;;-147.14;100.00;58812.66;6244956;22;45285;-59
2023/01/12 15:35:17;;;;;;;;;2.00;2.00;;;;;-147.14;100.00;58812.66;6217371;22;45367;-59
2023/01/12 15:37:42;;;;;;;;;3.33;3.00;;;;;-147.14;100.00;58812.66;6245245;22;45300;-59
2023/01/12 15:40:11;;;;;;;;;0.00;0.00;;;;;-147.14;100.00;58812.66;6244512;22;45277;-59
2023/01/12 15:42:37;;;;;;;;;2.00;0.00;;;;;-147.14;100.00;58812.66;6244360;22;45241;-59
2023/01/12 15:45:02;;;;;;;;;1.00;1.00;;;;;-147.14;100.00;58812.66;6242768;22;61851;-59
2023/01/12 15:47:28;;;;;;;;;4.00;2.00;;;;;-147.14;100.00;58812.66;6217064;22;45900;-60
2023/01/12 15:49:53;;;;;;;;;3.00;1.67;;;;;-147.14;100.00;58812.66;6243811;22;45705;-60
2023/01/12 15:52:24;;;;;;;;;3.67;1.67;;;;;-147.14;100.00;58812.66;6245866;22;45256;-59
2023/01/12 15:54:50;;;;;;;;;4.00;1.33;;;;;-147.14;100.00;58812.66;6245190;22;45523;-60
2023/01/12 15:57:16;;;;;;;;;1.67;1.00;;;;;-147.14;100.00;58812.66;6243787;22;45711;-59
2023/01/12 15:59:41;;;;;;;;;3.00;3.00;;;;;-147.14;100.00;58812.66;6245374;22;45296;-59
2023/01/12 16:02:22;;;;;;;;;2.00;2.00;;;;;-147.14;100.00;58812.66;6245123;22;45517;-58
2023/01/12 16:04:48;;;;;;;;;1.33;0.00;;;;;-147.14;100.00;58812.66;6215603;22;45480;-59
2023/01/12 16:07:13;;;;;;;;;2.67;2.33;;;;;-147.14;100.00;58812.66;6243540;22;64566;-59
2023/01/12 16:09:39;;;;;;;;;3.67;2.00;;;;;-147.14;100.00;58812.66;6245002;22;58237;-59
2023/01/12 16:12:06;;;;;;;;;3.33;2.00;;;;;-147.14;100.00;58812.66;6236984;22;45750;-59
2023/01/12 16:14:31;;;;;;;;;2.00;2.00;;;;;-147.14;100.00;58812.66;6242397;22;45348;-59
2023/01/12 16:16:57;;;;;;;;;4.67;3.00;;;;;-147.14;100.00;58812.66;6244591;22;46098;-59
2023/01/12 16:19:22;;;;;;;;;2.67;1.33;;;;;-147.14;100.00;58812.66;6245055;22;53170;-59
2023/01/12 16:21:48;;;;;;;;;1.67;1.33;;;;;-147.14;100.00;58812.66;6245098;22;45354;-58
2023/01/12 16:24:13;;;;;;;;;1.67;1.33;;;;;-147.14;100.00;58812.66;6244640;22;45289;-59
2023/01/12 16:26:38;;;;;;;;;3.00;3.00;;;;;-147.14;100.00;58812.66;6243260;22;59872;-59
2023/01/12 16:29:04;;;;;;;;;1.33;1.33;;;;;-147.14;100.00;58812.66;6243549;22;61679;-60
2023/01/12 16:31:30;;;;;;;;;4.00;1.00;;;;;-147.14;100.00;58812.66;6242969;22;46085;-59
2023/01/12 16:33:56;;;;;;;;;1.33;1.00;;;;;-147.14;100.00;58812.66;6242769;22;45344;-60
2023/01/12 16:36:21;;;;;;;;;2.67;1.33;;;;;-147.14;100.00;58812.66;6244587;22;45972;-58
2023/01/12 16:38:46;;;;;;;;;3.67;1.00;;;;;-147.14;100.00;58812.66;6244505;22;61659;-59
2023/01/12 16:41:17;;;;;;;;;2.00;0.33;;;;;-147.14;100.00;58812.66;6217573;22;45542;-59
2023/01/12 16:43:44;;;;;;;;;0.00;0.00;;;;;-147.14;100.00;58812.66;6245358;22;45634;-60
2023/01/12 16:46:10;;;;;;;;;1.00;0.00;;;;;-147.14;100.00;58812.66;6243317;22;46078;-60
2023/01/12 16:48:38;;;;;;;;;1.00;1.00;;;;;-147.14;100.00;58812.66;6243957;22;45300;-59
2023/01/12 16:51:09;;;;;;;;;2.00;1.33;;;;;-147.14;100.00;58812.66;6244497;22;45267;-60
2023/01/12 16:53:34;;;;;;;;;1.00;1.00;;;;;-147.14;100.00;58812.66;6245741;22;45285;-60
2023/01/12 16:56:01;;;;;;;;;2.00;2.00;;;;;-147.14;100.00;58812.66;6243973;22;47292;-59
2023/01/12 16:58:27;;;;;;;;;1.00;1.00;;;;;-147.14;100.00;58812.66;6244395;22;45316;-59
2023/01/12 17:00:52;;;;;;;;;2.00;1.00;;;;;-147.14;100.00;58812.66;6243777;22;60196;-59
2023/01/12 17:03:17;;;;;;;;;2.00;1.00;;;;;-147.14;100.00;58812.66;6244549;22;45384;-59
2023/01/12 17:05:43;;;;;;;;;0.67;0.00;;;;;-147.14;100.00;58812.66;6244947;22;45907;-59
2023/01/12 17:08:08;;;;;;;;;2.00;1.00;;;;;-147.14;100.00;58812.66;6243279;22;52665;-59
2023/01/12 17:10:34;;;;;;;;;2.67;1.00;;;;;-147.14;100.00;58812.66;6244647;22;45577;-59
2023/01/12 17:13:00;;;;;;;;;1.00;1.00;;;;;-147.14;100.00;58812.66;6243778;22;45456;-59
2023/01/12 17:15:25;;;;;;;;;1.00;1.00;;;;;-147.14;100.00;58812.66;6243055;22;45635;-59
2023/01/12 17:17:51;;;;;;;;;2.00;1.67;;;;;-147.14;100.00;58812.66;6244771;22;45366;-59
2023/01/12 17:20:16;;;;;;;;;4.00;1.33;;;;;-147.14;100.00;58812.66;6243126;22;61073;-59
2023/01/12 17:22:42;;;;;;;;;2.00;0.00;;;;;-147.14;100.00;58812.66;6236890;22;45470;-58
2023/01/12 17:25:08;;;;;;;;;2.33;1.00;;;;;-147.14;100.00;58812.66;6240874;22;45727;-59
2023/01/12 17:27:33;;;;;;;;;1.00;1.00;;;;;-147.14;100.00;58812.66;6241851;22;45392;-58
2023/01/12 17:29:58;;;;;;;;;4.00;1.00;;;;;-147.14;100.00;58812.66;6240896;22;54605;-59
2023/01/12 17:32:24;;;;;;;;;1.33;1.00;;;;;-147.14;100.00;58812.66;6239770;22;57345;-59
2023/01/12 17:34:49;;;;;;;;;3.33;1.00;;;;;-147.14;100.00;58812.66;6243215;22;51863;-59